KAL881 RKSI-ZSPD
Flight info
| Callsign | KAL881 |
|---|---|
| Flight time | 1h 19m |
| Altitude | 38000 |
| Route | BOPTA2H BOPTA Z51 BEDES Y711 PONIK A593 LAMEN/K0909F280 A593 AKARA/K0904S0840 A593 PUD |
| Aircraft | B77W/H-SDE1E2E3FGHIJ2J3J4J5M1RWXY/LB1D1 |
Departure
| Time | 2026-05-05 15:15 |
|---|---|
| Airport | Incheon International Airport (RKSI) |
Arrival
| Time | 2026-05-05 16:34 |
|---|---|
| Airport | Shanghai Pudong International Airport (ZSPD) |
| Time | Latitude | Longitude | Altitude | Speed | Heading |
|---|---|---|---|---|---|
| 2026-05-05 14:40 | 37.46136 | 126.43287 | 35 ft | 0 kts | 55° |
| 2026-05-05 15:01 | 37.46138 | 126.43290 | 37 ft | 0 kts | 55° |
| 2026-05-05 15:03 | 37.46128 | 126.43274 | 37 ft | 2 kts | 52° |
| 2026-05-05 15:04 | 37.46118 | 126.43259 | 36 ft | 2 kts | 46° |
| 2026-05-05 15:04 | 37.46107 | 126.43245 | 37 ft | 2 kts | 37° |
| 2026-05-05 15:04 | 37.46094 | 126.43235 | 37 ft | 2 kts | 16° |
| 2026-05-05 15:04 | 37.46079 | 126.43233 | 37 ft | 2 kts | 341° |
| 2026-05-05 15:05 | 37.46067 | 126.43240 | 35 ft | 0 kts | 326° |
| 2026-05-05 15:08 | 37.46079 | 126.43230 | 37 ft | 5 kts | 326° |
| 2026-05-05 15:08 | 37.46121 | 126.43195 | 37 ft | 10 kts | 326° |
| 2026-05-05 15:08 | 37.46193 | 126.43139 | 37 ft | 14 kts | 333° |
| 2026-05-05 15:08 | 37.46298 | 126.43078 | 37 ft | 19 kts | 335° |
| 2026-05-05 15:09 | 37.46429 | 126.43001 | 37 ft | 23 kts | 335° |
| 2026-05-05 15:09 | 37.46564 | 126.42896 | 37 ft | 23 kts | 324° |
| 2026-05-05 15:09 | 37.46708 | 126.42766 | 37 ft | 27 kts | 322° |
| 2026-05-05 15:09 | 37.46839 | 126.42617 | 37 ft | 17 kts | 309° |
| 2026-05-05 15:10 | 37.46833 | 126.42507 | 37 ft | 13 kts | 254° |
| 2026-05-05 15:10 | 37.46820 | 126.42392 | 37 ft | 14 kts | 287° |
| 2026-05-05 15:10 | 37.46879 | 126.42325 | 37 ft | 13 kts | 325° |
| 2026-05-05 15:10 | 37.46971 | 126.42244 | 37 ft | 19 kts | 325° |
| 2026-05-05 15:11 | 37.47095 | 126.42134 | 37 ft | 24 kts | 325° |
| 2026-05-05 15:11 | 37.47249 | 126.42004 | 37 ft | 29 kts | 326° |
| 2026-05-05 15:11 | 37.47389 | 126.41870 | 37 ft | 15 kts | 306° |
| 2026-05-05 15:11 | 37.47383 | 126.41787 | 36 ft | 12 kts | 241° |
| 2026-05-05 15:12 | 37.47358 | 126.41737 | 37 ft | 0 kts | 237° |
| 2026-05-05 15:13 | 37.47358 | 126.41736 | 37 ft | 1 kts | 237° |
| 2026-05-05 15:13 | 37.47342 | 126.41706 | 37 ft | 8 kts | 237° |
| 2026-05-05 15:13 | 37.47301 | 126.41624 | 38 ft | 14 kts | 237° |
| 2026-05-05 15:14 | 37.47242 | 126.41601 | 38 ft | 9 kts | 158° |
| 2026-05-05 15:14 | 37.47155 | 126.41670 | 38 ft | 27 kts | 144° |
| 2026-05-05 15:14 | 37.46877 | 126.41917 | 38 ft | 83 kts | 144° |
| 2026-05-05 15:14 | 37.46182 | 126.42533 | 39 ft | 161 kts | 145° |
| 2026-05-05 15:15 | 37.45210 | 126.43378 | 647 ft | 177 kts | 146° |
| 2026-05-05 15:15 | 37.44168 | 126.44291 | 1470 ft | 184 kts | 150° |
| 2026-05-05 15:15 | 37.43101 | 126.45175 | 2453 ft | 183 kts | 151° |
| 2026-05-05 15:15 | 37.42004 | 126.46093 | 3258 ft | 193 kts | 152° |
| 2026-05-05 15:16 | 37.40844 | 126.46991 | 4105 ft | 200 kts | 153° |
| 2026-05-05 15:16 | 37.39610 | 126.47860 | 4931 ft | 205 kts | 159° |
| 2026-05-05 15:16 | 37.38235 | 126.48382 | 5709 ft | 205 kts | 173° |
| 2026-05-05 15:16 | 37.36802 | 126.48842 | 6372 ft | 227 kts | 167° |
| 2026-05-05 15:17 | 37.35174 | 126.49473 | 6690 ft | 263 kts | 166° |
| 2026-05-05 15:17 | 37.33365 | 126.50146 | 7475 ft | 276 kts | 166° |
| 2026-05-05 15:17 | 37.31500 | 126.50808 | 8544 ft | 281 kts | 167° |
| 2026-05-05 15:17 | 37.29603 | 126.51463 | 9680 ft | 284 kts | 166° |
| 2026-05-05 15:18 | 37.27650 | 126.52167 | 10110 ft | 301 kts | 161° |
| 2026-05-05 15:18 | 37.25747 | 126.53297 | 9894 ft | 302 kts | 153° |
| 2026-05-05 15:18 | 37.23974 | 126.54566 | 10090 ft | 283 kts | 152° |
| 2026-05-05 15:18 | 37.22285 | 126.55787 | 10579 ft | 284 kts | 152° |
| 2026-05-05 15:19 | 37.20524 | 126.57031 | 11158 ft | 296 kts | 152° |
| 2026-05-05 15:19 | 37.18709 | 126.58285 | 11687 ft | 299 kts | 152° |
| 2026-05-05 15:19 | 37.16880 | 126.59531 | 12232 ft | 299 kts | 152° |
| 2026-05-05 15:19 | 37.15048 | 126.60769 | 12719 ft | 313 kts | 152° |
| 2026-05-05 15:20 | 37.13022 | 126.62083 | 12975 ft | 341 kts | 158° |
| 2026-05-05 15:20 | 37.10643 | 126.62697 | 13193 ft | 367 kts | 179° |
| 2026-05-05 15:20 | 37.08008 | 126.62598 | 13773 ft | 386 kts | 182° |
| 2026-05-05 15:20 | 37.05285 | 126.62476 | 14653 ft | 395 kts | 181° |
| 2026-05-05 15:21 | 37.02517 | 126.62406 | 15631 ft | 401 kts | 180° |
| 2026-05-05 15:21 | 36.99711 | 126.62367 | 16639 ft | 406 kts | 180° |
| 2026-05-05 15:21 | 36.96860 | 126.62351 | 17614 ft | 412 kts | 179° |
| 2026-05-05 15:21 | 36.93971 | 126.62389 | 18539 ft | 418 kts | 179° |
| 2026-05-05 15:22 | 36.91039 | 126.62437 | 19349 ft | 425 kts | 179° |
| 2026-05-05 15:22 | 36.88067 | 126.62473 | 20192 ft | 430 kts | 180° |
| 2026-05-05 15:22 | 36.85058 | 126.62365 | 20990 ft | 436 kts | 183° |
| 2026-05-05 15:22 | 36.82014 | 126.62144 | 21795 ft | 441 kts | 184° |
| 2026-05-05 15:23 | 36.78932 | 126.61922 | 22618 ft | 446 kts | 183° |
| 2026-05-05 15:23 | 36.75845 | 126.61728 | 23410 ft | 452 kts | 183° |
| 2026-05-05 15:23 | 36.72689 | 126.61734 | 24047 ft | 455 kts | 173° |
| 2026-05-05 15:23 | 36.69589 | 126.62609 | 24533 ft | 462 kts | 164° |
| 2026-05-05 15:24 | 36.66482 | 126.63746 | 25114 ft | 467 kts | 163° |
| 2026-05-05 15:24 | 36.63346 | 126.64905 | 25778 ft | 471 kts | 163° |
| 2026-05-05 15:24 | 36.60187 | 126.66040 | 26410 ft | 475 kts | 164° |
| 2026-05-05 15:24 | 36.56992 | 126.67149 | 27003 ft | 479 kts | 165° |
| 2026-05-05 15:25 | 36.53761 | 126.68242 | 27567 ft | 484 kts | 165° |
| 2026-05-05 15:25 | 36.50494 | 126.69333 | 28117 ft | 488 kts | 165° |
| 2026-05-05 15:25 | 36.47195 | 126.70431 | 28652 ft | 492 kts | 165° |
| 2026-05-05 15:25 | 36.43871 | 126.71539 | 29157 ft | 496 kts | 165° |
| 2026-05-05 15:26 | 36.40526 | 126.72655 | 29634 ft | 500 kts | 165° |
| 2026-05-05 15:26 | 36.37148 | 126.73784 | 30087 ft | 503 kts | 165° |
| 2026-05-05 15:26 | 36.33791 | 126.74913 | 30469 ft | 506 kts | 165° |
| 2026-05-05 15:26 | 36.30403 | 126.76056 | 31018 ft | 503 kts | 165° |
| 2026-05-05 15:27 | 36.27041 | 126.77190 | 31665 ft | 499 kts | 166° |
| 2026-05-05 15:27 | 36.23687 | 126.78319 | 32278 ft | 496 kts | 166° |
| 2026-05-05 15:27 | 36.20362 | 126.79430 | 32738 ft | 496 kts | 167° |
| 2026-05-05 15:27 | 36.16966 | 126.80284 | 33003 ft | 499 kts | 174° |
| 2026-05-05 15:28 | 36.13503 | 126.80693 | 33243 ft | 500 kts | 179° |
| 2026-05-05 15:28 | 36.10021 | 126.80738 | 33525 ft | 500 kts | 185° |
| 2026-05-05 15:28 | 36.06552 | 126.80391 | 33821 ft | 500 kts | 188° |
| 2026-05-05 15:28 | 36.03085 | 126.79960 | 34101 ft | 501 kts | 188° |
| 2026-05-05 15:29 | 35.99615 | 126.79530 | 34327 ft | 502 kts | 188° |
| 2026-05-05 15:29 | 35.96122 | 126.79125 | 34522 ft | 504 kts | 188° |
| 2026-05-05 15:29 | 35.92633 | 126.78744 | 34723 ft | 504 kts | 188° |
| 2026-05-05 15:29 | 35.89138 | 126.78371 | 34962 ft | 504 kts | 188° |
| 2026-05-05 15:30 | 35.85640 | 126.77997 | 35217 ft | 503 kts | 188° |
| 2026-05-05 15:30 | 35.82144 | 126.77622 | 35485 ft | 502 kts | 188° |
| 2026-05-05 15:30 | 35.78682 | 126.77249 | 35763 ft | 501 kts | 188° |
| 2026-05-05 15:30 | 35.75207 | 126.76875 | 36016 ft | 500 kts | 188° |
| 2026-05-05 15:31 | 35.71725 | 126.76500 | 36270 ft | 499 kts | 188° |
| 2026-05-05 15:31 | 35.68315 | 126.76133 | 36628 ft | 495 kts | 189° |
| 2026-05-05 15:31 | 35.64919 | 126.75771 | 37217 ft | 485 kts | 189° |
| 2026-05-05 15:31 | 35.61600 | 126.75417 | 37747 ft | 477 kts | 189° |
| 2026-05-05 15:32 | 35.58308 | 126.75063 | 38150 ft | 473 kts | 189° |
| 2026-05-05 15:32 | 35.51735 | 126.74353 | 38128 ft | 472 kts | 189° |
| 2026-05-05 15:33 | 35.45216 | 126.73661 | 38130 ft | 468 kts | 190° |
| 2026-05-05 15:33 | 35.38732 | 126.72974 | 38136 ft | 466 kts | 190° |
| 2026-05-05 15:34 | 35.32267 | 126.72288 | 38129 ft | 466 kts | 190° |
| 2026-05-05 15:34 | 35.25849 | 126.71609 | 38133 ft | 466 kts | 190° |
| 2026-05-05 15:35 | 35.19399 | 126.70928 | 38146 ft | 467 kts | 190° |
| 2026-05-05 15:35 | 35.12915 | 126.70244 | 38136 ft | 468 kts | 190° |
| 2026-05-05 15:36 | 35.06420 | 126.69557 | 38136 ft | 468 kts | 190° |
| 2026-05-05 15:36 | 34.99920 | 126.68870 | 38139 ft | 468 kts | 190° |
| 2026-05-05 15:37 | 34.93433 | 126.68184 | 38134 ft | 468 kts | 190° |
| 2026-05-05 15:37 | 34.86941 | 126.67500 | 38136 ft | 468 kts | 190° |
| 2026-05-05 15:38 | 34.80490 | 126.66821 | 38136 ft | 467 kts | 190° |
| 2026-05-05 15:38 | 34.74007 | 126.66140 | 38143 ft | 467 kts | 190° |
| 2026-05-05 15:39 | 34.67537 | 126.65461 | 38127 ft | 466 kts | 191° |
| 2026-05-05 15:39 | 34.61095 | 126.64785 | 38129 ft | 464 kts | 191° |
| 2026-05-05 15:40 | 34.54643 | 126.64110 | 38134 ft | 463 kts | 191° |
| 2026-05-05 15:40 | 34.48226 | 126.63440 | 38139 ft | 463 kts | 191° |
| 2026-05-05 15:41 | 34.41854 | 126.62775 | 38136 ft | 462 kts | 191° |
| 2026-05-05 15:41 | 34.35451 | 126.62088 | 38142 ft | 461 kts | 191° |
| 2026-05-05 15:42 | 34.29054 | 126.61393 | 38139 ft | 461 kts | 191° |
| 2026-05-05 15:42 | 34.22670 | 126.60710 | 38142 ft | 460 kts | 191° |
| 2026-05-05 15:43 | 34.16277 | 126.60044 | 38139 ft | 460 kts | 191° |
| 2026-05-05 15:43 | 34.09903 | 126.59382 | 38141 ft | 460 kts | 191° |
| 2026-05-05 15:44 | 34.03527 | 126.58718 | 38142 ft | 459 kts | 191° |
| 2026-05-05 15:44 | 33.97163 | 126.58056 | 38142 ft | 459 kts | 191° |
| 2026-05-05 15:45 | 33.90794 | 126.57394 | 38133 ft | 459 kts | 191° |
| 2026-05-05 15:45 | 33.84534 | 126.56454 | 38132 ft | 452 kts | 198° |
| 2026-05-05 15:46 | 33.78538 | 126.54364 | 38130 ft | 446 kts | 205° |
| 2026-05-05 15:46 | 33.72727 | 126.51791 | 38129 ft | 446 kts | 205° |
| 2026-05-05 15:47 | 33.66895 | 126.49227 | 38128 ft | 446 kts | 205° |
| 2026-05-05 15:47 | 33.61042 | 126.46684 | 38131 ft | 446 kts | 205° |
| 2026-05-05 15:48 | 33.55201 | 126.44156 | 38130 ft | 446 kts | 205° |
| 2026-05-05 15:48 | 33.49359 | 126.41631 | 38133 ft | 446 kts | 205° |
| 2026-05-05 15:49 | 33.43556 | 126.39125 | 38127 ft | 446 kts | 205° |
| 2026-05-05 15:49 | 33.37707 | 126.36615 | 38126 ft | 446 kts | 205° |
| 2026-05-05 15:50 | 33.30291 | 126.33444 | 38124 ft | 445 kts | 205° |
| 2026-05-05 15:50 | 33.18708 | 126.28496 | 38130 ft | 444 kts | 205° |
| 2026-05-05 15:51 | 33.07083 | 126.23543 | 38133 ft | 442 kts | 205° |
| 2026-05-05 15:51 | 32.95499 | 126.18605 | 38139 ft | 441 kts | 205° |
| 2026-05-05 15:52 | 32.83970 | 126.13651 | 38141 ft | 440 kts | 205° |
| 2026-05-05 15:52 | 32.75212 | 126.09902 | 38138 ft | 439 kts | 205° |
| 2026-05-05 15:53 | 32.63735 | 126.05000 | 38140 ft | 438 kts | 205° |
| 2026-05-05 15:53 | 32.52284 | 126.00122 | 38142 ft | 437 kts | 205° |
| 2026-05-05 15:54 | 32.40840 | 125.95267 | 38139 ft | 436 kts | 205° |
| 2026-05-05 15:54 | 32.29422 | 125.90438 | 38136 ft | 436 kts | 205° |
| 2026-05-05 15:55 | 32.18003 | 125.85620 | 38140 ft | 435 kts | 205° |
| 2026-05-05 15:55 | 32.06689 | 125.80855 | 38137 ft | 433 kts | 207° |
| 2026-05-05 15:55 | 32.01982 | 125.76864 | 38172 ft | 415 kts | 231° |
| 2026-05-05 15:56 | 31.98888 | 125.71149 | 38141 ft | 416 kts | 251° |
| 2026-05-05 15:56 | 31.95997 | 125.57804 | 38172 ft | 426 kts | 254° |
| 2026-05-05 15:57 | 31.92998 | 125.44185 | 38141 ft | 431 kts | 253° |
| 2026-05-05 15:57 | 31.89971 | 125.30737 | 38125 ft | 422 kts | 253° |
| 2026-05-05 15:58 | 31.86964 | 125.17434 | 38125 ft | 417 kts | 253° |
| 2026-05-05 15:58 | 31.85187 | 125.09609 | 38144 ft | 423 kts | 253° |
| 2026-05-05 15:59 | 31.83649 | 125.02852 | 38135 ft | 429 kts | 253° |
| 2026-05-05 15:59 | 31.82130 | 124.96087 | 38131 ft | 431 kts | 254° |
| 2026-05-05 16:00 | 31.80662 | 124.89270 | 38127 ft | 431 kts | 254° |
| 2026-05-05 16:00 | 31.79193 | 124.82442 | 38126 ft | 430 kts | 254° |
| 2026-05-05 16:01 | 31.77716 | 124.75629 | 38126 ft | 429 kts | 254° |
| 2026-05-05 16:01 | 31.76245 | 124.68876 | 38127 ft | 429 kts | 254° |
| 2026-05-05 16:02 | 31.74758 | 124.62076 | 38124 ft | 429 kts | 254° |
| 2026-05-05 16:02 | 31.73271 | 124.55296 | 38130 ft | 429 kts | 254° |
| 2026-05-05 16:03 | 31.71777 | 124.48498 | 38123 ft | 430 kts | 254° |
| 2026-05-05 16:03 | 31.70285 | 124.41731 | 38122 ft | 431 kts | 254° |
| 2026-05-05 16:04 | 31.68778 | 124.34911 | 38116 ft | 432 kts | 254° |
| 2026-05-05 16:04 | 31.67263 | 124.28079 | 38119 ft | 433 kts | 254° |
| 2026-05-05 16:05 | 31.65740 | 124.21221 | 38124 ft | 434 kts | 254° |
| 2026-05-05 16:05 | 31.64211 | 124.14359 | 38119 ft | 434 kts | 254° |
| 2026-05-05 16:06 | 31.62686 | 124.07528 | 38114 ft | 435 kts | 254° |
| 2026-05-05 16:06 | 31.61149 | 124.00665 | 38113 ft | 435 kts | 254° |
| 2026-05-05 16:07 | 31.59627 | 123.93768 | 38112 ft | 435 kts | 255° |
| 2026-05-05 16:07 | 31.58147 | 123.86971 | 37806 ft | 428 kts | 255° |
| 2026-05-05 16:07 | 31.57412 | 123.83601 | 37265 ft | 424 kts | 255° |
| 2026-05-05 16:08 | 31.56682 | 123.80262 | 36653 ft | 421 kts | 255° |
| 2026-05-05 16:08 | 31.55952 | 123.76938 | 36088 ft | 418 kts | 254° |
| 2026-05-05 16:08 | 31.55229 | 123.73650 | 35573 ft | 414 kts | 254° |
| 2026-05-05 16:08 | 31.54512 | 123.70395 | 35104 ft | 410 kts | 254° |
| 2026-05-05 16:09 | 31.53809 | 123.67205 | 34649 ft | 406 kts | 254° |
| 2026-05-05 16:09 | 31.53104 | 123.64012 | 34197 ft | 402 kts | 254° |
| 2026-05-05 16:09 | 31.52404 | 123.60849 | 33655 ft | 399 kts | 254° |
| 2026-05-05 16:09 | 31.51709 | 123.57708 | 33106 ft | 396 kts | 254° |
| 2026-05-05 16:10 | 31.51018 | 123.54587 | 32561 ft | 394 kts | 254° |
| 2026-05-05 16:10 | 31.50330 | 123.51489 | 32046 ft | 391 kts | 254° |
| 2026-05-05 16:10 | 31.49669 | 123.48450 | 31542 ft | 389 kts | 255° |
| 2026-05-05 16:10 | 31.49066 | 123.45370 | 31061 ft | 386 kts | 256° |
| 2026-05-05 16:11 | 31.48496 | 123.42309 | 30566 ft | 384 kts | 257° |
| 2026-05-05 16:11 | 31.46807 | 123.33201 | 28965 ft | 378 kts | 257° |
| 2026-05-05 16:12 | 31.46239 | 123.30188 | 28392 ft | 377 kts | 257° |
| 2026-05-05 16:12 | 31.45114 | 123.24267 | 27362 ft | 374 kts | 257° |
| 2026-05-05 16:13 | 31.43416 | 123.15383 | 25890 ft | 370 kts | 258° |
| 2026-05-05 16:13 | 31.42853 | 123.12449 | 25425 ft | 368 kts | 258° |
| 2026-05-05 16:13 | 31.42292 | 123.09525 | 24963 ft | 367 kts | 258° |
| 2026-05-05 16:14 | 31.41177 | 123.03728 | 24084 ft | 365 kts | 258° |
| 2026-05-05 16:14 | 31.40064 | 122.97954 | 23167 ft | 362 kts | 258° |
| 2026-05-05 16:15 | 31.38959 | 122.92236 | 22288 ft | 357 kts | 258° |
| 2026-05-05 16:15 | 31.37873 | 122.86630 | 21450 ft | 353 kts | 258° |
| 2026-05-05 16:16 | 31.36791 | 122.81056 | 20628 ft | 349 kts | 258° |
| 2026-05-05 16:16 | 31.35721 | 122.75541 | 19826 ft | 346 kts | 258° |
| 2026-05-05 16:17 | 31.34677 | 122.70062 | 19061 ft | 342 kts | 258° |
| 2026-05-05 16:17 | 31.34160 | 122.67348 | 18679 ft | 341 kts | 258° |
| 2026-05-05 16:18 | 31.33132 | 122.61962 | 17874 ft | 338 kts | 258° |
| 2026-05-05 16:18 | 31.32624 | 122.59312 | 17480 ft | 336 kts | 258° |
| 2026-05-05 16:18 | 31.31607 | 122.54011 | 16699 ft | 332 kts | 258° |
| 2026-05-05 16:19 | 31.31101 | 122.51377 | 16321 ft | 331 kts | 258° |
| 2026-05-05 16:19 | 31.30596 | 122.48748 | 15953 ft | 329 kts | 258° |
| 2026-05-05 16:19 | 31.29616 | 122.43672 | 15253 ft | 302 kts | 258° |
| 2026-05-05 16:20 | 31.28753 | 122.39090 | 14061 ft | 282 kts | 258° |
| 2026-05-05 16:20 | 31.27918 | 122.34629 | 12409 ft | 279 kts | 258° |
| 2026-05-05 16:21 | 31.27097 | 122.30258 | 10887 ft | 274 kts | 258° |
| 2026-05-05 16:22 | 31.25883 | 122.23821 | 8652 ft | 267 kts | 258° |
| 2026-05-05 16:22 | 31.25084 | 122.19595 | 7187 ft | 264 kts | 258° |
| 2026-05-05 16:23 | 31.24302 | 122.15461 | 5808 ft | 265 kts | 257° |
| 2026-05-05 16:23 | 31.23904 | 122.13360 | 5518 ft | 263 kts | 257° |
| 2026-05-05 16:23 | 31.23117 | 122.09214 | 4941 ft | 260 kts | 257° |
| 2026-05-05 16:24 | 31.22729 | 122.07173 | 4650 ft | 259 kts | 256° |
| 2026-05-05 16:24 | 31.22341 | 122.05133 | 4404 ft | 256 kts | 256° |
| 2026-05-05 16:24 | 31.21578 | 122.01098 | 3923 ft | 248 kts | 258° |
| 2026-05-05 16:25 | 31.21702 | 121.99096 | 3469 ft | 255 kts | 290° |
| 2026-05-05 16:25 | 31.23496 | 121.95468 | 2719 ft | 258 kts | 297° |
| 2026-05-05 16:25 | 31.24390 | 121.93668 | 2531 ft | 253 kts | 297° |
| 2026-05-05 16:26 | 31.26051 | 121.90254 | 2307 ft | 224 kts | 295° |
| 2026-05-05 16:26 | 31.27442 | 121.87364 | 2064 ft | 181 kts | 294° |
| 2026-05-05 16:27 | 31.28026 | 121.86139 | 1970 ft | 166 kts | 293° |
| 2026-05-05 16:27 | 31.28560 | 121.85015 | 1954 ft | 152 kts | 292° |
| 2026-05-05 16:27 | 31.29061 | 121.83950 | 1993 ft | 149 kts | 292° |
| 2026-05-05 16:27 | 31.29564 | 121.82878 | 1966 ft | 153 kts | 292° |
| 2026-05-05 16:28 | 31.30078 | 121.81787 | 1963 ft | 153 kts | 292° |
| 2026-05-05 16:28 | 31.30591 | 121.80700 | 1955 ft | 152 kts | 292° |
| 2026-05-05 16:28 | 31.31100 | 121.79618 | 1950 ft | 151 kts | 292° |
| 2026-05-05 16:28 | 31.31605 | 121.78548 | 1952 ft | 149 kts | 292° |
| 2026-05-05 16:29 | 31.31949 | 121.77445 | 1935 ft | 142 kts | 260° |
| 2026-05-05 16:29 | 31.31505 | 121.76509 | 1957 ft | 133 kts | 207° |
| 2026-05-05 16:29 | 31.30625 | 121.76435 | 1965 ft | 131 kts | 167° |
| 2026-05-05 16:29 | 31.29737 | 121.76667 | 1966 ft | 135 kts | 171° |
| 2026-05-05 16:30 | 31.28818 | 121.76871 | 1956 ft | 131 kts | 169° |
| 2026-05-05 16:30 | 31.27938 | 121.77129 | 1948 ft | 128 kts | 167° |
| 2026-05-05 16:30 | 31.27093 | 121.77419 | 1948 ft | 128 kts | 166° |
| 2026-05-05 16:30 | 31.26242 | 121.77731 | 1946 ft | 127 kts | 165° |
| 2026-05-05 16:31 | 31.25388 | 121.78051 | 1928 ft | 130 kts | 165° |
| 2026-05-05 16:31 | 31.24516 | 121.78380 | 1754 ft | 133 kts | 165° |
| 2026-05-05 16:31 | 31.23649 | 121.78710 | 1573 ft | 128 kts | 165° |
| 2026-05-05 16:31 | 31.22810 | 121.79029 | 1390 ft | 126 kts | 165° |
| 2026-05-05 16:32 | 31.21967 | 121.79348 | 1228 ft | 128 kts | 164° |
| 2026-05-05 16:32 | 31.21121 | 121.79676 | 1055 ft | 128 kts | 163° |
| 2026-05-05 16:32 | 31.20285 | 121.79990 | 895 ft | 126 kts | 164° |
| 2026-05-05 16:32 | 31.19441 | 121.80306 | 732 ft | 131 kts | 163° |
| 2026-05-05 16:33 | 31.18571 | 121.80680 | 603 ft | 133 kts | 160° |
| 2026-05-05 16:33 | 31.17664 | 121.81004 | 403 ft | 138 kts | 162° |
| 2026-05-05 16:33 | 31.16764 | 121.81341 | 237 ft | 135 kts | 163° |
| 2026-05-05 16:33 | 31.15865 | 121.81680 | 52 ft | 136 kts | 161° |
| 2026-05-05 16:34 | 31.15031 | 121.81992 | 31 ft | 111 kts | 162° |
| 2026-05-05 16:34 | 31.14510 | 121.82189 | 27 ft | 60 kts | 161° |
| 2026-05-05 16:34 | 31.14255 | 121.82282 | 28 ft | 26 kts | 163° |
| 2026-05-05 16:34 | 31.14078 | 121.82311 | 27 ft | 26 kts | 182° |
| 2026-05-05 16:35 | 31.14004 | 121.82301 | 27 ft | 0 kts | 191° |
| 2026-05-05 16:35 | 31.14002 | 121.82301 | 27 ft | 1 kts | 191° |
| 2026-05-05 16:35 | 31.13996 | 121.82299 | 27 ft | 2 kts | 191° |
| 2026-05-05 16:35 | 31.13951 | 121.82289 | 27 ft | 11 kts | 191° |
| 2026-05-05 16:36 | 31.13847 | 121.82267 | 27 ft | 20 kts | 189° |
| 2026-05-05 16:36 | 31.13696 | 121.82272 | 27 ft | 11 kts | 206° |
| 2026-05-05 16:36 | 31.13693 | 121.82268 | 27 ft | 0 kts | 221° |
| 2026-05-05 16:37 | 31.13692 | 121.82266 | 27 ft | 3 kts | 224° |
| 2026-05-05 16:37 | 31.13654 | 121.82184 | 28 ft | 21 kts | 253° |
| 2026-05-05 16:37 | 31.13597 | 121.81992 | 27 ft | 20 kts | 251° |
| 2026-05-05 16:37 | 31.13569 | 121.81891 | 27 ft | 16 kts | 263° |
| 2026-05-05 16:38 | 31.13675 | 121.81794 | 27 ft | 26 kts | 342° |
| 2026-05-05 16:38 | 31.13806 | 121.81744 | 28 ft | 34 kts | 342° |
| 2026-05-05 16:38 | 31.14056 | 121.81647 | 28 ft | 25 kts | 341° |
| 2026-05-05 16:38 | 31.14219 | 121.81584 | 28 ft | 25 kts | 341° |
| 2026-05-05 16:39 | 31.14382 | 121.81521 | 27 ft | 25 kts | 341° |
| 2026-05-05 16:39 | 31.14491 | 121.81478 | 27 ft | 25 kts | 341° |
| 2026-05-05 16:39 | 31.14654 | 121.81417 | 28 ft | 25 kts | 343° |
| 2026-05-05 16:39 | 31.14818 | 121.81359 | 28 ft | 25 kts | 343° |
| 2026-05-05 16:40 | 31.14980 | 121.81302 | 28 ft | 25 kts | 342° |
| 2026-05-05 16:40 | 31.15143 | 121.81241 | 27 ft | 25 kts | 342° |
| 2026-05-05 16:40 | 31.15304 | 121.81179 | 27 ft | 22 kts | 342° |
| 2026-05-05 16:40 | 31.15389 | 121.81072 | 27 ft | 15 kts | 258° |
| 2026-05-05 16:41 | 31.15360 | 121.80952 | 27 ft | 15 kts | 250° |
| 2026-05-05 16:41 | 31.15308 | 121.80844 | 28 ft | 15 kts | 234° |
| 2026-05-05 16:41 | 31.15289 | 121.80783 | 28 ft | 3 kts | 252° |
| 2026-05-05 16:41 | 31.15283 | 121.80762 | 28 ft | 1 kts | 252° |